sensor_id;sensor_type;location;lat;lon;timestamp;P1;durP1;ratioP1;P2;durP2;ratioP2
2874;SDS011;1445;52.600;13.328;2022-08-27T00:01:05;21.27;;;17.27;;
2874;SDS011;1445;52.600;13.328;2022-08-27T00:03:30;19.75;;;16.48;;
2874;SDS011;1445;52.600;13.328;2022-08-27T00:05:55;20.60;;;16.55;;
2874;SDS011;1445;52.600;13.328;2022-08-27T00:08:20;22.85;;;16.85;;
2874;SDS011;1445;52.600;13.328;2022-08-27T00:10:45;19.10;;;16.13;;
2874;SDS011;1445;52.600;13.328;2022-08-27T00:13:11;19.23;;;15.45;;
2874;SDS011;1445;52.600;13.328;2022-08-27T00:15:36;19.63;;;14.52;;
2874;SDS011;1445;52.600;13.328;2022-08-27T00:18:02;17.33;;;14.57;;
2874;SDS011;1445;52.600;13.328;2022-08-27T00:20:27;19.88;;;15.13;;
2874;SDS011;1445;52.600;13.328;2022-08-27T00:22:52;18.90;;;15.20;;
2874;SDS011;1445;52.600;13.328;2022-08-27T00:25:18;17.75;;;14.88;;
2874;SDS011;1445;52.600;13.328;2022-08-27T00:27:44;17.50;;;14.77;;
2874;SDS011;1445;52.600;13.328;2022-08-27T00:30:10;18.05;;;16.13;;
2874;SDS011;1445;52.600;13.328;2022-08-27T00:32:37;16.63;;;14.60;;
2874;SDS011;1445;52.600;13.328;2022-08-27T00:35:02;17.30;;;15.40;;
2874;SDS011;1445;52.600;13.328;2022-08-27T00:37:28;18.02;;;14.80;;
2874;SDS011;1445;52.600;13.328;2022-08-27T00:39:53;20.02;;;15.55;;
2874;SDS011;1445;52.600;13.328;2022-08-27T00:42:19;16.38;;;14.68;;
2874;SDS011;1445;52.600;13.328;2022-08-27T00:44:45;20.75;;;14.48;;
2874;SDS011;1445;52.600;13.328;2022-08-27T00:47:12;18.10;;;14.93;;
2874;SDS011;1445;52.600;13.328;2022-08-27T00:49:46;15.13;;;13.60;;
2874;SDS011;1445;52.600;13.328;2022-08-27T00:52:31;15.98;;;14.35;;
2874;SDS011;1445;52.600;13.328;2022-08-27T00:55:06;15.52;;;13.50;;
2874;SDS011;1445;52.600;13.328;2022-08-27T00:57:33;16.98;;;13.82;;
2874;SDS011;1445;52.600;13.328;2022-08-27T00:59:58;17.80;;;14.57;;
2874;SDS011;1445;52.600;13.328;2022-08-27T01:02:23;16.85;;;15.13;;
2874;SDS011;1445;52.600;13.328;2022-08-27T01:05:09;16.23;;;13.32;;
2874;SDS011;1445;52.600;13.328;2022-08-27T01:07:37;17.98;;;15.27;;
2874;SDS011;1445;52.600;13.328;2022-08-27T01:10:03;17.58;;;14.77;;
2874;SDS011;1445;52.600;13.328;2022-08-27T01:12:30;16.13;;;14.43;;
2874;SDS011;1445;52.600;13.328;2022-08-27T01:14:55;20.63;;;14.93;;
2874;SDS011;1445;52.600;13.328;2022-08-27T01:17:21;17.27;;;14.93;;
2874;SDS011;1445;52.600;13.328;2022-08-27T01:19:50;18.13;;;14.55;;
2874;SDS011;1445;52.600;13.328;2022-08-27T01:24:48;15.95;;;14.13;;
2874;SDS011;1445;52.600;13.328;2022-08-27T01:27:15;16.25;;;14.20;;
2874;SDS011;1445;52.600;13.328;2022-08-27T01:29:42;19.55;;;15.05;;
2874;SDS011;1445;52.600;13.328;2022-08-27T01:32:09;17.77;;;15.18;;
2874;SDS011;1445;52.600;13.328;2022-08-27T01:34:35;17.02;;;14.63;;
2874;SDS011;1445;52.600;13.328;2022-08-27T01:37:01;17.80;;;15.27;;
2874;SDS011;1445;52.600;13.328;2022-08-27T01:39:26;15.80;;;13.95;;
2874;SDS011;1445;52.600;13.328;2022-08-27T01:41:51;17.98;;;14.27;;
2874;SDS011;1445;52.600;13.328;2022-08-27T01:44:16;17.95;;;15.38;;
2874;SDS011;1445;52.600;13.328;2022-08-27T01:46:42;18.33;;;15.48;;
2874;SDS011;1445;52.600;13.328;2022-08-27T01:49:08;18.55;;;14.90;;
2874;SDS011;1445;52.600;13.328;2022-08-27T01:51:33;20.55;;;16.10;;
2874;SDS011;1445;52.600;13.328;2022-08-27T01:53:58;23.58;;;16.40;;
2874;SDS011;1445;52.600;13.328;2022-08-27T01:56:24;19.33;;;16.23;;
2874;SDS011;1445;52.600;13.328;2022-08-27T01:58:49;19.17;;;15.80;;
2874;SDS011;1445;52.600;13.328;2022-08-27T02:01:15;16.67;;;14.13;;
2874;SDS011;1445;52.600;13.328;2022-08-27T02:03:40;18.95;;;16.08;;
2874;SDS011;1445;52.600;13.328;2022-08-27T02:06:07;19.95;;;16.60;;
2874;SDS011;1445;52.600;13.328;2022-08-27T02:08:33;22.50;;;17.02;;
2874;SDS011;1445;52.600;13.328;2022-08-27T02:10:59;22.65;;;17.27;;
2874;SDS011;1445;52.600;13.328;2022-08-27T02:13:24;23.42;;;17.55;;
2874;SDS011;1445;52.600;13.328;2022-08-27T02:15:49;24.88;;;18.42;;
2874;SDS011;1445;52.600;13.328;2022-08-27T02:18:15;23.80;;;17.83;;
2874;SDS011;1445;52.600;13.328;2022-08-27T02:20:44;26.35;;;19.17;;
2874;SDS011;1445;52.600;13.328;2022-08-27T02:23:10;25.83;;;18.75;;
2874;SDS011;1445;52.600;13.328;2022-08-27T02:25:35;25.70;;;18.98;;
2874;SDS011;1445;52.600;13.328;2022-08-27T02:28:00;28.55;;;19.75;;
2874;SDS011;1445;52.600;13.328;2022-08-27T02:30:26;24.05;;;19.38;;
2874;SDS011;1445;52.600;13.328;2022-08-27T02:32:52;30.75;;;19.52;;
2874;SDS011;1445;52.600;13.328;2022-08-27T02:35:18;28.38;;;19.30;;
2874;SDS011;1445;52.600;13.328;2022-08-27T02:37:44;29.80;;;20.10;;
2874;SDS011;1445;52.600;13.328;2022-08-27T02:40:10;27.95;;;19.60;;
2874;SDS011;1445;52.600;13.328;2022-08-27T02:42:35;31.33;;;20.55;;
2874;SDS011;1445;52.600;13.328;2022-08-27T02:45:01;32.15;;;21.30;;
2874;SDS011;1445;52.600;13.328;2022-08-27T02:47:26;27.15;;;19.85;;
2874;SDS011;1445;52.600;13.328;2022-08-27T02:49:52;31.75;;;21.45;;
2874;SDS011;1445;52.600;13.328;2022-08-27T02:52:17;29.25;;;21.02;;
2874;SDS011;1445;52.600;13.328;2022-08-27T02:54:42;30.95;;;21.83;;
2874;SDS011;1445;52.600;13.328;2022-08-27T02:57:07;34.97;;;23.33;;
2874;SDS011;1445;52.600;13.328;2022-08-27T02:59:33;32.78;;;23.55;;
2874;SDS011;1445;52.600;13.328;2022-08-27T03:01:58;41.30;;;24.60;;
2874;SDS011;1445;52.600;13.328;2022-08-27T03:04:23;41.38;;;26.00;;
2874;SDS011;1445;52.600;13.328;2022-08-27T03:06:48;43.92;;;25.83;;
2874;SDS011;1445;52.600;13.328;2022-08-27T03:09:14;48.58;;;26.73;;
2874;SDS011;1445;52.600;13.328;2022-08-27T03:11:39;44.75;;;27.20;;
2874;SDS011;1445;52.600;13.328;2022-08-27T03:14:05;48.42;;;29.55;;
2874;SDS011;1445;52.600;13.328;2022-08-27T03:16:34;49.83;;;28.90;;
2874;SDS011;1445;52.600;13.328;2022-08-27T03:19:00;53.00;;;29.58;;
2874;SDS011;1445;52.600;13.328;2022-08-27T03:21:25;57.60;;;30.27;;
2874;SDS011;1445;52.600;13.328;2022-08-27T03:23:51;59.47;;;30.90;;
2874;SDS011;1445;52.600;13.328;2022-08-27T03:26:16;53.55;;;31.20;;
2874;SDS011;1445;52.600;13.328;2022-08-27T03:28:42;56.03;;;31.05;;
2874;SDS011;1445;52.600;13.328;2022-08-27T03:31:12;54.20;;;32.08;;
2874;SDS011;1445;52.600;13.328;2022-08-27T03:33:39;47.75;;;28.48;;
2874;SDS011;1445;52.600;13.328;2022-08-27T03:36:05;57.80;;;32.65;;
2874;SDS011;1445;52.600;13.328;2022-08-27T03:38:34;53.55;;;31.48;;
2874;SDS011;1445;52.600;13.328;2022-08-27T03:41:00;53.03;;;30.15;;
2874;SDS011;1445;52.600;13.328;2022-08-27T03:43:26;54.60;;;30.48;;
2874;SDS011;1445;52.600;13.328;2022-08-27T03:45:51;51.60;;;31.02;;
2874;SDS011;1445;52.600;13.328;2022-08-27T03:48:17;52.15;;;30.50;;
2874;SDS011;1445;52.600;13.328;2022-08-27T03:50:44;48.90;;;29.63;;
2874;SDS011;1445;52.600;13.328;2022-08-27T03:53:10;55.95;;;30.60;;
2874;SDS011;1445;52.600;13.328;2022-08-27T03:55:36;48.10;;;29.48;;
2874;SDS011;1445;52.600;13.328;2022-08-27T03:58:01;52.42;;;30.10;;
2874;SDS011;1445;52.600;13.328;2022-08-27T04:00:27;45.08;;;28.98;;
2874;SDS011;1445;52.600;13.328;2022-08-27T04:02:53;46.20;;;27.73;;
2874;SDS011;1445;52.600;13.328;2022-08-27T04:05:19;44.30;;;28.13;;
2874;SDS011;1445;52.600;13.328;2022-08-27T04:07:44;52.17;;;27.52;;
2874;SDS011;1445;52.600;13.328;2022-08-27T04:10:11;57.55;;;28.63;;
2874;SDS011;1445;52.600;13.328;2022-08-27T04:12:37;50.47;;;27.85;;
2874;SDS011;1445;52.600;13.328;2022-08-27T04:15:02;46.95;;;26.65;;
2874;SDS011;1445;52.600;13.328;2022-08-27T04:17:29;47.20;;;29.13;;
2874;SDS011;1445;52.600;13.328;2022-08-27T04:19:54;52.35;;;27.40;;
2874;SDS011;1445;52.600;13.328;2022-08-27T04:22:19;46.33;;;27.15;;
2874;SDS011;1445;52.600;13.328;2022-08-27T04:24:45;46.20;;;28.23;;
2874;SDS011;1445;52.600;13.328;2022-08-27T04:27:10;45.50;;;27.52;;
2874;SDS011;1445;52.600;13.328;2022-08-27T04:29:38;45.25;;;27.40;;
2874;SDS011;1445;52.600;13.328;2022-08-27T04:32:04;58.78;;;27.67;;
2874;SDS011;1445;52.600;13.328;2022-08-27T04:34:29;51.00;;;27.08;;
2874;SDS011;1445;52.600;13.328;2022-08-27T04:36:55;49.17;;;26.98;;
2874;SDS011;1445;52.600;13.328;2022-08-27T04:39:20;46.08;;;27.17;;
2874;SDS011;1445;52.600;13.328;2022-08-27T04:41:47;44.42;;;26.70;;
2874;SDS011;1445;52.600;13.328;2022-08-27T04:44:13;54.17;;;26.25;;
2874;SDS011;1445;52.600;13.328;2022-08-27T04:46:38;47.28;;;27.90;;
2874;SDS011;1445;52.600;13.328;2022-08-27T04:49:05;57.05;;;28.77;;
2874;SDS011;1445;52.600;13.328;2022-08-27T04:51:31;53.22;;;27.73;;
2874;SDS011;1445;52.600;13.328;2022-08-27T04:53:57;61.15;;;29.45;;
2874;SDS011;1445;52.600;13.328;2022-08-27T04:56:23;101.97;;;32.80;;
2874;SDS011;1445;52.600;13.328;2022-08-27T04:58:48;50.78;;;28.48;;
2874;SDS011;1445;52.600;13.328;2022-08-27T05:01:18;48.15;;;28.52;;
2874;SDS011;1445;52.600;13.328;2022-08-27T05:03:43;52.22;;;29.17;;
2874;SDS011;1445;52.600;13.328;2022-08-27T05:06:09;52.38;;;26.83;;
2874;SDS011;1445;52.600;13.328;2022-08-27T05:08:34;42.42;;;27.30;;
2874;SDS011;1445;52.600;13.328;2022-08-27T05:11:00;48.72;;;26.40;;
2874;SDS011;1445;52.600;13.328;2022-08-27T05:13:26;55.10;;;27.05;;
2874;SDS011;1445;52.600;13.328;2022-08-27T05:16:02;46.60;;;27.75;;
2874;SDS011;1445;52.600;13.328;2022-08-27T05:18:28;52.85;;;27.38;;
2874;SDS011;1445;52.600;13.328;2022-08-27T05:20:53;50.08;;;26.85;;
2874;SDS011;1445;52.600;13.328;2022-08-27T05:23:19;48.50;;;28.67;;
2874;SDS011;1445;52.600;13.328;2022-08-27T05:25:45;44.97;;;25.70;;
2874;SDS011;1445;52.600;13.328;2022-08-27T05:28:11;45.17;;;27.13;;
2874;SDS011;1445;52.600;13.328;2022-08-27T05:30:41;37.92;;;23.25;;
2874;SDS011;1445;52.600;13.328;2022-08-27T05:33:07;39.05;;;24.58;;
2874;SDS011;1445;52.600;13.328;2022-08-27T05:35:40;49.30;;;25.33;;
2874;SDS011;1445;52.600;13.328;2022-08-27T05:38:07;35.30;;;23.07;;
2874;SDS011;1445;52.600;13.328;2022-08-27T05:40:33;37.58;;;24.77;;
2874;SDS011;1445;52.600;13.328;2022-08-27T05:42:58;30.75;;;20.88;;
2874;SDS011;1445;52.600;13.328;2022-08-27T05:45:23;35.28;;;22.40;;
2874;SDS011;1445;52.600;13.328;2022-08-27T05:47:48;31.17;;;20.08;;
2874;SDS011;1445;52.600;13.328;2022-08-27T05:50:14;30.17;;;20.83;;
2874;SDS011;1445;52.600;13.328;2022-08-27T05:52:39;30.95;;;19.73;;
2874;SDS011;1445;52.600;13.328;2022-08-27T05:55:05;26.70;;;18.40;;
2874;SDS011;1445;52.600;13.328;2022-08-27T05:57:30;28.83;;;19.42;;
2874;SDS011;1445;52.600;13.328;2022-08-27T05:59:55;28.45;;;19.42;;
2874;SDS011;1445;52.600;13.328;2022-08-27T06:02:39;28.42;;;19.35;;
2874;SDS011;1445;52.600;13.328;2022-08-27T06:05:04;25.33;;;17.98;;
2874;SDS011;1445;52.600;13.328;2022-08-27T06:07:31;22.90;;;15.20;;
2874;SDS011;1445;52.600;13.328;2022-08-27T06:09:57;18.48;;;15.75;;
2874;SDS011;1445;52.600;13.328;2022-08-27T06:12:23;19.88;;;14.65;;
2874;SDS011;1445;52.600;13.328;2022-08-27T06:14:49;18.05;;;15.50;;
2874;SDS011;1445;52.600;13.328;2022-08-27T06:17:14;24.08;;;16.48;;
2874;SDS011;1445;52.600;13.328;2022-08-27T06:19:39;21.83;;;15.52;;
2874;SDS011;1445;52.600;13.328;2022-08-27T06:22:06;20.05;;;14.82;;
2874;SDS011;1445;52.600;13.328;2022-08-27T06:24:31;19.17;;;13.27;;
2874;SDS011;1445;52.600;13.328;2022-08-27T06:26:57;18.80;;;13.95;;
2874;SDS011;1445;52.600;13.328;2022-08-27T06:29:22;19.90;;;14.32;;
2874;SDS011;1445;52.600;13.328;2022-08-27T06:31:49;18.40;;;13.30;;
2874;SDS011;1445;52.600;13.328;2022-08-27T06:34:14;19.13;;;13.48;;
2874;SDS011;1445;52.600;13.328;2022-08-27T06:36:40;17.65;;;14.45;;
2874;SDS011;1445;52.600;13.328;2022-08-27T06:39:06;16.98;;;13.10;;
2874;SDS011;1445;52.600;13.328;2022-08-27T06:41:32;17.55;;;13.82;;
2874;SDS011;1445;52.600;13.328;2022-08-27T06:43:57;18.08;;;14.23;;
2874;SDS011;1445;52.600;13.328;2022-08-27T06:46:23;19.63;;;13.85;;
2874;SDS011;1445;52.600;13.328;2022-08-27T06:48:55;18.20;;;13.50;;
2874;SDS011;1445;52.600;13.328;2022-08-27T06:51:22;18.92;;;14.32;;
2874;SDS011;1445;52.600;13.328;2022-08-27T06:53:50;15.98;;;12.95;;
2874;SDS011;1445;52.600;13.328;2022-08-27T06:56:16;17.17;;;12.93;;
2874;SDS011;1445;52.600;13.328;2022-08-27T06:58:42;14.00;;;11.88;;
2874;SDS011;1445;52.600;13.328;2022-08-27T07:01:11;20.00;;;13.57;;
2874;SDS011;1445;52.600;13.328;2022-08-27T07:03:37;15.60;;;11.60;;
2874;SDS011;1445;52.600;13.328;2022-08-27T07:06:04;14.63;;;11.90;;
2874;SDS011;1445;52.600;13.328;2022-08-27T07:08:29;15.98;;;11.73;;
2874;SDS011;1445;52.600;13.328;2022-08-27T07:10:55;15.10;;;11.65;;
2874;SDS011;1445;52.600;13.328;2022-08-27T07:13:21;16.23;;;12.85;;
2874;SDS011;1445;52.600;13.328;2022-08-27T07:15:46;14.40;;;11.05;;
2874;SDS011;1445;52.600;13.328;2022-08-27T07:18:12;14.60;;;11.27;;
2874;SDS011;1445;52.600;13.328;2022-08-27T07:20:39;15.55;;;11.57;;
2874;SDS011;1445;52.600;13.328;2022-08-27T07:23:04;15.43;;;12.30;;
2874;SDS011;1445;52.600;13.328;2022-08-27T07:25:29;12.23;;;10.68;;
2874;SDS011;1445;52.600;13.328;2022-08-27T07:27:56;13.90;;;11.30;;
2874;SDS011;1445;52.600;13.328;2022-08-27T07:30:21;14.02;;;10.30;;
2874;SDS011;1445;52.600;13.328;2022-08-27T07:32:46;14.93;;;10.98;;
2874;SDS011;1445;52.600;13.328;2022-08-27T07:35:12;15.27;;;10.27;;
2874;SDS011;1445;52.600;13.328;2022-08-27T07:37:38;13.27;;;10.88;;
2874;SDS011;1445;52.600;13.328;2022-08-27T07:40:05;12.10;;;10.80;;
2874;SDS011;1445;52.600;13.328;2022-08-27T07:42:30;13.25;;;10.90;;
2874;SDS011;1445;52.600;13.328;2022-08-27T07:45:14;12.88;;;10.48;;
2874;SDS011;1445;52.600;13.328;2022-08-27T07:47:39;13.15;;;10.70;;
2874;SDS011;1445;52.600;13.328;2022-08-27T07:50:04;12.40;;;10.38;;
2874;SDS011;1445;52.600;13.328;2022-08-27T07:52:30;11.60;;;9.93;;
2874;SDS011;1445;52.600;13.328;2022-08-27T07:54:55;12.20;;;9.98;;
2874;SDS011;1445;52.600;13.328;2022-08-27T07:57:21;13.52;;;10.07;;
2874;SDS011;1445;52.600;13.328;2022-08-27T07:59:46;12.18;;;9.98;;
2874;SDS011;1445;52.600;13.328;2022-08-27T08:02:12;11.00;;;9.20;;
2874;SDS011;1445;52.600;13.328;2022-08-27T08:04:37;11.50;;;10.27;;
2874;SDS011;1445;52.600;13.328;2022-08-27T08:07:03;14.52;;;9.68;;
2874;SDS011;1445;52.600;13.328;2022-08-27T08:09:28;12.63;;;9.65;;
2874;SDS011;1445;52.600;13.328;2022-08-27T08:11:56;13.23;;;10.05;;
2874;SDS011;1445;52.600;13.328;2022-08-27T08:14:21;12.00;;;10.05;;
2874;SDS011;1445;52.600;13.328;2022-08-27T08:16:46;11.93;;;10.00;;
2874;SDS011;1445;52.600;13.328;2022-08-27T08:19:11;15.23;;;10.70;;
2874;SDS011;1445;52.600;13.328;2022-08-27T08:21:37;12.02;;;10.82;;
2874;SDS011;1445;52.600;13.328;2022-08-27T08:24:02;12.38;;;10.27;;
2874;SDS011;1445;52.600;13.328;2022-08-27T08:26:28;16.05;;;11.52;;
2874;SDS011;1445;52.600;13.328;2022-08-27T08:28:53;12.68;;;10.13;;
2874;SDS011;1445;52.600;13.328;2022-08-27T08:31:19;12.93;;;9.85;;
2874;SDS011;1445;52.600;13.328;2022-08-27T08:33:44;12.05;;;10.82;;
2874;SDS011;1445;52.600;13.328;2022-08-27T08:36:13;12.00;;;9.70;;
2874;SDS011;1445;52.600;13.328;2022-08-27T08:38:39;13.18;;;9.95;;
2874;SDS011;1445;52.600;13.328;2022-08-27T08:41:05;12.05;;;9.65;;
2874;SDS011;1445;52.600;13.328;2022-08-27T08:43:32;11.27;;;9.38;;
2874;SDS011;1445;52.600;13.328;2022-08-27T08:46:09;11.45;;;9.27;;
2874;SDS011;1445;52.600;13.328;2022-08-27T08:48:36;9.23;;;8.25;;
2874;SDS011;1445;52.600;13.328;2022-08-27T08:51:07;14.55;;;8.30;;
2874;SDS011;1445;52.600;13.328;2022-08-27T08:53:36;9.90;;;8.90;;
2874;SDS011;1445;52.600;13.328;2022-08-27T08:56:03;10.63;;;8.63;;
2874;SDS011;1445;52.600;13.328;2022-08-27T09:01:03;9.45;;;8.18;;
2874;SDS011;1445;52.600;13.328;2022-08-27T09:03:31;8.63;;;7.63;;
2874;SDS011;1445;52.600;13.328;2022-08-27T09:05:58;8.77;;;7.00;;
2874;SDS011;1445;52.600;13.328;2022-08-27T09:08:36;7.82;;;7.03;;
2874;SDS011;1445;52.600;13.328;2022-08-27T09:13:28;8.82;;;6.93;;
2874;SDS011;1445;52.600;13.328;2022-08-27T09:15:58;9.18;;;6.72;;
2874;SDS011;1445;52.600;13.328;2022-08-27T09:18:25;8.82;;;7.07;;
2874;SDS011;1445;52.600;13.328;2022-08-27T09:20:53;9.38;;;7.18;;
2874;SDS011;1445;52.600;13.328;2022-08-27T09:23:39;8.23;;;7.43;;
2874;SDS011;1445;52.600;13.328;2022-08-27T09:26:19;9.52;;;7.55;;
2874;SDS011;1445;52.600;13.328;2022-08-27T09:28:45;10.07;;;7.85;;
2874;SDS011;1445;52.600;13.328;2022-08-27T09:31:29;15.05;;;7.75;;
2874;SDS011;1445;52.600;13.328;2022-08-27T09:33:59;8.35;;;7.47;;
2874;SDS011;1445;52.600;13.328;2022-08-27T09:36:25;8.55;;;7.30;;
2874;SDS011;1445;52.600;13.328;2022-08-27T09:38:51;9.70;;;7.50;;
2874;SDS011;1445;52.600;13.328;2022-08-27T09:41:20;8.90;;;8.00;;
2874;SDS011;1445;52.600;13.328;2022-08-27T09:43:54;9.30;;;7.97;;
2874;SDS011;1445;52.600;13.328;2022-08-27T09:46:21;12.45;;;8.20;;
2874;SDS011;1445;52.600;13.328;2022-08-27T09:48:47;9.50;;;8.00;;
2874;SDS011;1445;52.600;13.328;2022-08-27T09:51:13;11.35;;;8.95;;
2874;SDS011;1445;52.600;13.328;2022-08-27T09:53:51;10.48;;;8.50;;
2874;SDS011;1445;52.600;13.328;2022-08-27T09:56:25;11.02;;;9.38;;
2874;SDS011;1445;52.600;13.328;2022-08-27T09:58:53;9.45;;;8.45;;
2874;SDS011;1445;52.600;13.328;2022-08-27T10:01:23;8.93;;;8.02;;
2874;SDS011;1445;52.600;13.328;2022-08-27T10:03:49;10.50;;;7.97;;
2874;SDS011;1445;52.600;13.328;2022-08-27T10:06:24;8.80;;;7.85;;
2874;SDS011;1445;52.600;13.328;2022-08-27T10:08:50;8.90;;;7.40;;
2874;SDS011;1445;52.600;13.328;2022-08-27T10:11:21;10.30;;;7.45;;
2874;SDS011;1445;52.600;13.328;2022-08-27T10:19:46;7.20;;;6.47;;
2874;SDS011;1445;52.600;13.328;2022-08-27T10:21:58;7.30;;;6.60;;
2874;SDS011;1445;52.600;13.328;2022-08-27T10:42:31;6.13;;;5.53;;
2874;SDS011;1445;52.600;13.328;2022-08-27T10:53:00;5.50;;;5.00;;
2874;SDS011;1445;52.600;13.328;2022-08-27T10:55:31;6.97;;;5.07;;
2874;SDS011;1445;52.600;13.328;2022-08-27T11:00:23;5.67;;;5.17;;
2874;SDS011;1445;52.600;13.328;2022-08-27T11:03:02;6.63;;;5.03;;
2874;SDS011;1445;52.600;13.328;2022-08-27T11:05:35;5.05;;;4.25;;
2874;SDS011;1445;52.600;13.328;2022-08-27T11:08:16;5.70;;;4.72;;
2874;SDS011;1445;52.600;13.328;2022-08-27T11:10:44;5.85;;;4.95;;
2874;SDS011;1445;52.600;13.328;2022-08-27T11:13:12;5.40;;;4.90;;
2874;SDS011;1445;52.600;13.328;2022-08-27T11:15:40;5.13;;;4.63;;
2874;SDS011;1445;52.600;13.328;2022-08-27T11:20:43;5.32;;;4.82;;
2874;SDS011;1445;52.600;13.328;2022-08-27T11:23:11;6.93;;;4.90;;
2874;SDS011;1445;52.600;13.328;2022-08-27T11:41:24;6.25;;;5.28;;
2874;SDS011;1445;52.600;13.328;2022-08-27T11:43:52;5.40;;;4.72;;
2874;SDS011;1445;52.600;13.328;2022-08-27T11:46:22;5.60;;;5.10;;
2874;SDS011;1445;52.600;13.328;2022-08-27T11:48:56;6.40;;;5.13;;
2874;SDS011;1445;52.600;13.328;2022-08-27T11:51:43;6.32;;;5.30;;
2874;SDS011;1445;52.600;13.328;2022-08-27T11:54:20;5.78;;;5.18;;
2874;SDS011;1445;52.600;13.328;2022-08-27T11:56:46;6.40;;;5.28;;
2874;SDS011;1445;52.600;13.328;2022-08-27T11:59:27;6.13;;;5.57;;
2874;SDS011;1445;52.600;13.328;2022-08-27T12:01:54;6.63;;;5.80;;
2874;SDS011;1445;52.600;13.328;2022-08-27T12:04:21;6.68;;;5.65;;
2874;SDS011;1445;52.600;13.328;2022-08-27T12:09:26;8.80;;;6.05;;
2874;SDS011;1445;52.600;13.328;2022-08-27T12:11:58;8.35;;;6.90;;
2874;SDS011;1445;52.600;13.328;2022-08-27T12:14:50;7.32;;;6.63;;
2874;SDS011;1445;52.600;13.328;2022-08-27T12:17:26;6.95;;;6.18;;
2874;SDS011;1445;52.600;13.328;2022-08-27T12:22:42;6.47;;;5.28;;
2874;SDS011;1445;52.600;13.328;2022-08-27T12:25:28;6.50;;;5.43;;
2874;SDS011;1445;52.600;13.328;2022-08-27T12:27:56;7.47;;;5.38;;
2874;SDS011;1445;52.600;13.328;2022-08-27T12:32:48;6.38;;;5.75;;
2874;SDS011;1445;52.600;13.328;2022-08-27T12:35:18;6.97;;;5.75;;
2874;SDS011;1445;52.600;13.328;2022-08-27T12:40:25;8.37;;;5.37;;
2874;SDS011;1445;52.600;13.328;2022-08-27T12:42:51;7.97;;;5.68;;
2874;SDS011;1445;52.600;13.328;2022-08-27T12:45:27;6.60;;;4.95;;
2874;SDS011;1445;52.600;13.328;2022-08-27T12:47:52;7.13;;;4.97;;
2874;SDS011;1445;52.600;13.328;2022-08-27T12:50:20;6.18;;;5.03;;
2874;SDS011;1445;52.600;13.328;2022-08-27T12:58:04;5.10;;;4.32;;
2874;SDS011;1445;52.600;13.328;2022-08-27T13:00:33;5.05;;;4.20;;
2874;SDS011;1445;52.600;13.328;2022-08-27T13:03:18;11.45;;;4.10;;
2874;SDS011;1445;52.600;13.328;2022-08-27T13:05:46;4.40;;;3.67;;
2874;SDS011;1445;52.600;13.328;2022-08-27T13:08:46;4.88;;;4.10;;
2874;SDS011;1445;52.600;13.328;2022-08-27T13:11:08;5.53;;;4.28;;
2874;SDS011;1445;52.600;13.328;2022-08-27T13:13:34;4.47;;;3.50;;
2874;SDS011;1445;52.600;13.328;2022-08-27T13:16:01;5.22;;;3.55;;
2874;SDS011;1445;52.600;13.328;2022-08-27T13:18:27;4.30;;;3.90;;
2874;SDS011;1445;52.600;13.328;2022-08-27T13:23:28;5.25;;;3.45;;
2874;SDS011;1445;52.600;13.328;2022-08-27T13:26:12;4.07;;;3.33;;
2874;SDS011;1445;52.600;13.328;2022-08-27T13:28:38;4.25;;;3.58;;
2874;SDS011;1445;52.600;13.328;2022-08-27T13:31:04;4.05;;;3.65;;
2874;SDS011;1445;52.600;13.328;2022-08-27T13:33:32;4.05;;;3.65;;
2874;SDS011;1445;52.600;13.328;2022-08-27T13:35:58;4.80;;;4.05;;
2874;SDS011;1445;52.600;13.328;2022-08-27T13:38:25;5.28;;;3.83;;
2874;SDS011;1445;52.600;13.328;2022-08-27T13:40:58;5.90;;;4.05;;
2874;SDS011;1445;52.600;13.328;2022-08-27T13:43:28;4.07;;;3.73;;
2874;SDS011;1445;52.600;13.328;2022-08-27T13:45:55;4.03;;;3.67;;
2874;SDS011;1445;52.600;13.328;2022-08-27T13:48:20;4.88;;;3.90;;
2874;SDS011;1445;52.600;13.328;2022-08-27T13:50:50;5.00;;;3.88;;
2874;SDS011;1445;52.600;13.328;2022-08-27T13:53:19;4.20;;;3.80;;
2874;SDS011;1445;52.600;13.328;2022-08-27T13:56:05;4.68;;;3.65;;
2874;SDS011;1445;52.600;13.328;2022-08-27T13:58:32;4.60;;;3.85;;
2874;SDS011;1445;52.600;13.328;2022-08-27T14:01:08;5.25;;;4.15;;
2874;SDS011;1445;52.600;13.328;2022-08-27T14:03:34;4.47;;;3.55;;
2874;SDS011;1445;52.600;13.328;2022-08-27T14:06:00;4.60;;;3.70;;
2874;SDS011;1445;52.600;13.328;2022-08-27T14:08:29;3.85;;;3.50;;
2874;SDS011;1445;52.600;13.328;2022-08-27T14:11:01;5.97;;;3.70;;
2874;SDS011;1445;52.600;13.328;2022-08-27T14:13:26;5.55;;;4.40;;
2874;SDS011;1445;52.600;13.328;2022-08-27T14:15:55;5.38;;;4.22;;
2874;SDS011;1445;52.600;13.328;2022-08-27T14:20:46;6.20;;;4.63;;
2874;SDS011;1445;52.600;13.328;2022-08-27T14:23:11;5.53;;;5.00;;
2874;SDS011;1445;52.600;13.328;2022-08-27T14:25:36;5.20;;;4.70;;
2874;SDS011;1445;52.600;13.328;2022-08-27T14:28:02;5.90;;;4.97;;
2874;SDS011;1445;52.600;13.328;2022-08-27T14:30:27;6.45;;;5.30;;
2874;SDS011;1445;52.600;13.328;2022-08-27T14:32:52;7.85;;;5.50;;
2874;SDS011;1445;52.600;13.328;2022-08-27T14:35:18;7.93;;;5.22;;
2874;SDS011;1445;52.600;13.328;2022-08-27T14:37:43;8.43;;;5.47;;
2874;SDS011;1445;52.600;13.328;2022-08-27T14:40:09;6.45;;;5.25;;
2874;SDS011;1445;52.600;13.328;2022-08-27T14:42:35;5.63;;;5.05;;
2874;SDS011;1445;52.600;13.328;2022-08-27T14:45:01;6.85;;;5.10;;
2874;SDS011;1445;52.600;13.328;2022-08-27T14:47:26;7.18;;;5.32;;
2874;SDS011;1445;52.600;13.328;2022-08-27T14:49:51;7.80;;;6.03;;
2874;SDS011;1445;52.600;13.328;2022-08-27T14:52:17;7.43;;;5.72;;
2874;SDS011;1445;52.600;13.328;2022-08-27T14:54:42;7.10;;;6.22;;
2874;SDS011;1445;52.600;13.328;2022-08-27T14:57:08;7.82;;;5.53;;
2874;SDS011;1445;52.600;13.328;2022-08-27T14:59:34;6.90;;;5.25;;
2874;SDS011;1445;52.600;13.328;2022-08-27T15:02:00;6.07;;;5.47;;
2874;SDS011;1445;52.600;13.328;2022-08-27T15:04:26;5.85;;;4.95;;
2874;SDS011;1445;52.600;13.328;2022-08-27T15:06:52;5.68;;;5.18;;
2874;SDS011;1445;52.600;13.328;2022-08-27T15:09:18;6.15;;;4.93;;
2874;SDS011;1445;52.600;13.328;2022-08-27T15:11:43;5.63;;;4.90;;
2874;SDS011;1445;52.600;13.328;2022-08-27T15:14:12;6.15;;;5.20;;
2874;SDS011;1445;52.600;13.328;2022-08-27T15:16:39;6.43;;;5.30;;
2874;SDS011;1445;52.600;13.328;2022-08-27T15:19:05;6.72;;;5.10;;
2874;SDS011;1445;52.600;13.328;2022-08-27T15:21:31;5.75;;;5.15;;
2874;SDS011;1445;52.600;13.328;2022-08-27T15:23:59;6.03;;;5.03;;
2874;SDS011;1445;52.600;13.328;2022-08-27T15:26:24;8.23;;;4.82;;
2874;SDS011;1445;52.600;13.328;2022-08-27T15:28:49;5.70;;;4.72;;
2874;SDS011;1445;52.600;13.328;2022-08-27T15:31:15;7.40;;;4.78;;
2874;SDS011;1445;52.600;13.328;2022-08-27T15:33:40;5.78;;;5.00;;
2874;SDS011;1445;52.600;13.328;2022-08-27T15:36:05;5.70;;;4.97;;
2874;SDS011;1445;52.600;13.328;2022-08-27T15:38:30;5.85;;;5.18;;
2874;SDS011;1445;52.600;13.328;2022-08-27T15:40:56;5.97;;;4.90;;
2874;SDS011;1445;52.600;13.328;2022-08-27T15:43:21;5.72;;;4.72;;
2874;SDS011;1445;52.600;13.328;2022-08-27T15:45:47;6.28;;;4.97;;
2874;SDS011;1445;52.600;13.328;2022-08-27T15:48:12;5.47;;;4.25;;
2874;SDS011;1445;52.600;13.328;2022-08-27T15:50:37;5.32;;;4.38;;
2874;SDS011;1445;52.600;13.328;2022-08-27T15:53:04;4.50;;;4.07;;
2874;SDS011;1445;52.600;13.328;2022-08-27T15:55:33;6.68;;;4.38;;
2874;SDS011;1445;52.600;13.328;2022-08-27T15:57:59;4.88;;;4.03;;
2874;SDS011;1445;52.600;13.328;2022-08-27T16:00:25;7.40;;;4.28;;
2874;SDS011;1445;52.600;13.328;2022-08-27T16:02:50;5.43;;;4.00;;
2874;SDS011;1445;52.600;13.328;2022-08-27T16:05:16;4.65;;;3.40;;
2874;SDS011;1445;52.600;13.328;2022-08-27T16:07:42;4.13;;;3.22;;